Time;durP1;ratioP1;P1;durP2;ratioP2;P2;SDS_P1;SDS_P2;PMS_P1;PMS_P2;Temp;Humidity;BMP_temperature;BMP_pressure;BME280_temperature;BME280_humidity;BME280_pressure;Samples;Min_cycle;Max_cycle;Signal;HPM_P1;HPM_P2
2023/01/30 00:01:20;;;;;;;13.23;6.30;;;7.20;98.20;;;;;;5068429;28;20762;-92
2023/01/30 00:03:46;;;;;;;14.77;6.00;;;7.20;98.10;;;;;;5052925;28;20448;-90
2023/01/30 00:06:12;;;;;;;11.73;5.47;;;7.30;98.10;;;;;;5067059;28;20404;-92
2023/01/30 00:08:38;;;;;;;13.82;5.85;;;7.50;98.10;;;;;;5052371;28;20403;-91
2023/01/30 00:11:09;;;;;;;13.57;6.38;;;7.30;98.00;;;;;;5050572;28;20416;-92
2023/01/30 00:13:35;;;;;;;13.45;5.65;;;7.30;98.00;;;;;;5052421;28;20407;-91
2023/01/30 00:16:02;;;;;;;13.25;5.40;;;7.40;98.00;;;;;;5068524;28;20408;-91
2023/01/30 00:18:28;;;;;;;11.40;5.50;;;7.30;98.00;;;;;;5067509;28;20418;-91
2023/01/30 00:20:58;;;;;;;14.57;5.70;;;7.30;98.00;;;;;;5052331;28;20747;-93
2023/01/30 00:23:25;;;;;;;12.18;5.65;;;7.30;97.90;;;;;;5050045;28;20415;-90
2023/01/30 00:25:51;;;;;;;15.70;6.38;;;7.30;97.90;;;;;;5068846;28;20407;-92
2023/01/30 00:28:17;;;;;;;24.13;7.63;;;7.30;98.20;;;;;;5050523;28;20450;-91
2023/01/30 00:30:42;;;;;;;14.88;6.43;;;7.30;98.60;;;;;;5052223;28;20449;-91
2023/01/30 00:33:09;;;;;;;17.30;7.28;;;7.30;99.00;;;;;;5067740;28;20400;-93
2023/01/30 00:35:35;;;;;;;22.88;8.00;;;7.20;99.20;;;;;;5068037;28;20451;-93
2023/01/30 00:38:01;;;;;;;20.87;7.93;;;7.20;99.40;;;;;;5068571;28;20414;-91
2023/01/30 00:40:28;;;;;;;23.07;8.47;;;7.20;99.70;;;;;;5066743;28;20412;-93
2023/01/30 00:48:26;;;;;;;26.80;10.38;;;7.00;99.90;;;;;;5068060;28;20411;-91
2023/01/30 00:50:52;;;;;;;25.10;10.10;;;7.00;99.90;;;;;;5051667;28;20782;-92
2023/01/30 00:53:17;;;;;;;30.97;11.27;;;7.00;99.90;;;;;;5050159;28;20404;-93
2023/01/30 00:55:44;;;;;;;27.73;11.07;;;7.00;99.90;;;;;;5051717;28;20422;-93
2023/01/30 00:58:11;;;;;;;30.25;11.68;;;7.00;99.90;;;;;;5066327;28;20400;-92
2023/01/30 01:00:37;;;;;;;31.75;11.60;;;7.00;99.90;;;;;;5067985;28;20465;-91
2023/01/30 01:03:02;;;;;;;29.67;11.75;;;7.00;99.90;;;;;;5065824;28;20457;-92
2023/01/30 01:05:28;;;;;;;31.60;11.18;;;7.00;99.90;;;;;;5051199;28;20432;-93
2023/01/30 01:07:54;;;;;;;28.57;12.17;;;7.00;99.90;;;;;;5050810;28;20902;-92
2023/01/30 01:10:20;;;;;;;28.13;10.63;;;7.00;99.90;;;;;;5067210;28;20899;-91
2023/01/30 01:12:48;;;;;;;30.67;11.60;;;7.00;99.90;;;;;;5051407;28;20499;-90
2023/01/30 01:15:14;;;;;;;28.42;11.73;;;6.90;99.90;;;;;;5049374;28;20423;-92
2023/01/30 01:17:40;;;;;;;31.25;11.57;;;7.00;99.90;;;;;;5051213;28;20400;-92
2023/01/30 01:20:07;;;;;;;34.88;12.98;;;7.20;99.90;;;;;;5065783;28;20404;-91
2023/01/30 01:22:33;;;;;;;29.50;11.75;;;7.00;99.90;;;;;;5050345;28;20407;-93
2023/01/30 01:24:59;;;;;;;30.52;12.90;;;7.00;99.90;;;;;;5049353;28;20439;-89
2023/01/30 01:27:24;;;;;;;29.83;12.88;;;7.00;99.90;;;;;;5067518;28;20441;-93
2023/01/30 01:29:50;;;;;;;31.27;13.50;;;7.00;99.90;;;;;;5050469;28;20980;-93
2023/01/30 01:32:16;;;;;;;31.87;13.30;;;7.00;99.90;;;;;;5049371;28;20469;-90
2023/01/30 01:34:41;;;;;;;35.53;13.40;;;7.00;99.90;;;;;;5050947;28;20418;-91
2023/01/30 01:37:07;;;;;;;33.17;13.57;;;7.00;99.90;;;;;;5065478;28;20427;-93
2023/01/30 01:42:17;;;;;;;33.80;13.70;;;7.00;99.90;;;;;;5065952;28;20902;-93
2023/01/30 01:45:01;;;;;;;29.60;12.13;;;7.00;99.90;;;;;;5050111;28;20437;-92
2023/01/30 01:47:27;;;;;;;34.65;13.25;;;6.90;99.90;;;;;;5067560;28;20419;-91
2023/01/30 01:49:54;;;;;;;39.72;13.57;;;7.00;99.90;;;;;;5065409;28;20412;-90
2023/01/30 01:52:20;;;;;;;33.05;12.18;;;7.00;99.90;;;;;;5050385;28;20435;-91
2023/01/30 01:54:56;;;;;;;37.03;12.55;;;7.00;99.90;;;;;;5064993;28;20498;-91
2023/01/30 01:57:33;;;;;;;34.88;11.52;;;7.30;99.90;;;;;;5067467;28;20590;-92
2023/01/30 02:00:10;;;;;;;38.60;11.90;;;7.00;99.90;;;;;;5049734;28;21043;-91
2023/01/30 02:02:36;;;;;;;35.60;11.10;;;7.00;99.90;;;;;;5065665;28;20906;-93
2023/01/30 02:05:05;;;;;;;33.45;11.18;;;7.00;99.90;;;;;;5050612;28;20431;-93
2023/01/30 02:07:58;;;;;;;35.83;11.07;;;7.00;99.90;;;;;;5065576;28;20399;-93
2023/01/30 02:10:40;;;;;;;32.00;11.38;;;7.00;99.90;;;;;;5050633;28;20410;-93
2023/01/30 02:13:05;;;;;;;33.75;9.82;;;7.00;99.90;;;;;;5050028;28;20411;-92
2023/01/30 02:15:32;;;;;;;33.38;9.80;;;7.00;99.90;;;;;;5049164;28;20407;-92
2023/01/30 02:17:58;;;;;;;33.28;10.32;;;7.00;99.90;;;;;;5050321;28;20403;-93
2023/01/30 02:20:59;;;;;;;36.85;10.05;;;7.00;99.90;;;;;;5064843;28;20771;-91
2023/01/30 02:23:50;;;;;;;30.33;9.48;;;7.00;99.90;;;;;;5050117;28;20491;-93
2023/01/30 02:26:53;;;;;;;32.63;8.90;;;7.00;99.90;;;;;;5050448;28;20477;-92
2023/01/30 02:29:56;;;;;;;35.50;8.60;;;7.10;99.90;;;;;;5064959;28;20404;-91
2023/01/30 02:32:24;;;;;;;31.20;9.00;;;7.10;99.90;;;;;;5049769;28;20470;-91
2023/01/30 02:35:20;;;;;;;30.75;8.88;;;7.10;99.90;;;;;;5050180;28;20412;-90
2023/01/30 02:37:56;;;;;;;33.25;8.70;;;7.10;99.90;;;;;;5065037;28;20412;-91
2023/01/30 02:40:50;;;;;;;29.35;7.68;;;7.20;99.90;;;;;;5050264;28;20421;-91
2023/01/30 02:43:25;;;;;;;27.90;7.10;;;7.10;99.90;;;;;;5068630;28;20519;-89
2023/01/30 02:46:12;;;;;;;28.83;7.13;;;7.20;99.90;;;;;;5052232;28;20481;-90
2023/01/30 02:48:40;;;;;;;22.60;6.03;;;7.10;99.90;;;;;;5054501;28;20423;-92
2023/01/30 02:51:28;;;;;;;27.90;6.70;;;7.30;99.90;;;;;;5051937;28;20960;-93
2023/01/30 02:53:54;;;;;;;22.23;6.13;;;7.10;99.90;;;;;;5070106;28;20412;-92
2023/01/30 02:56:20;;;;;;;25.73;6.18;;;7.10;99.90;;;;;;5070492;28;20404;-93
2023/01/30 02:58:51;;;;;;;26.77;5.63;;;7.30;99.90;;;;;;5052282;28;20534;-92
2023/01/30 03:01:35;;;;;;;26.48;6.03;;;7.20;99.90;;;;;;5070881;28;20416;-93
2023/01/30 03:04:30;;;;;;;23.17;5.40;;;7.10;99.90;;;;;;5051555;28;20918;-91
2023/01/30 03:07:04;;;;;;;26.05;6.03;;;7.10;99.90;;;;;;5069900;28;20506;-90
2023/01/30 03:10:05;;;;;;;26.00;5.90;;;7.10;99.90;;;;;;5053685;28;20413;-92
2023/01/30 03:12:43;;;;;;;24.35;5.20;;;7.00;99.90;;;;;;5068143;28;20415;-91
2023/01/30 03:15:18;;;;;;;23.05;4.90;;;7.30;99.80;;;;;;5070768;28;20836;-92
2023/01/30 03:17:46;;;;;;;21.10;4.28;;;7.00;99.50;;;;;;5052648;28;20419;-92
2023/01/30 03:20:14;;;;;;;19.35;4.82;;;7.10;99.30;;;;;;5068684;28;20403;-90
2023/01/30 03:22:39;;;;;;;21.98;4.53;;;6.90;98.90;;;;;;5053283;28;20408;-93
2023/01/30 03:25:07;;;;;;;18.80;4.50;;;6.80;98.80;;;;;;5051134;28;20913;-90
2023/01/30 03:27:33;;;;;;;24.10;4.28;;;6.80;98.80;;;;;;5053434;28;20426;-93
2023/01/30 03:29:59;;;;;;;19.93;3.60;;;6.80;98.70;;;;;;5051141;28;20483;-93
2023/01/30 03:32:25;;;;;;;22.87;4.27;;;6.90;98.70;;;;;;5053033;28;20582;-88
2023/01/30 03:34:50;;;;;;;22.08;3.65;;;6.80;98.60;;;;;;5068461;28;20510;-90
2023/01/30 03:37:16;;;;;;;20.63;3.97;;;6.70;98.50;;;;;;5069308;28;20439;-92
2023/01/30 03:39:42;;;;;;;21.53;4.00;;;6.70;98.50;;;;;;5052655;28;20408;-90
2023/01/30 03:42:08;;;;;;;22.27;3.63;;;6.70;98.40;;;;;;5067768;28;20494;-92
2023/01/30 03:44:34;;;;;;;18.38;3.75;;;7.00;98.20;;;;;;5053113;28;20519;-91
2023/01/30 03:46:59;;;;;;;21.50;3.87;;;6.80;97.90;;;;;;5067427;28;20486;-93
2023/01/30 03:49:25;;;;;;;19.13;3.80;;;6.90;97.70;;;;;;5053306;28;20415;-90
2023/01/30 03:51:51;;;;;;;18.38;3.45;;;6.80;97.60;;;;;;5067416;28;20412;-91
2023/01/30 03:54:16;;;;;;;22.20;4.37;;;6.80;97.60;;;;;;5035665;28;20438;-93
2023/01/30 03:56:42;;;;;;;23.60;5.00;;;7.00;97.50;;;;;;5052259;28;20419;-91
2023/01/30 03:59:08;;;;;;;22.52;3.97;;;6.80;97.40;;;;;;5068171;28;20408;-95
2023/01/30 04:01:33;;;;;;;21.05;4.30;;;6.90;97.30;;;;;;5052946;28;20403;-94
2023/01/30 04:03:59;;;;;;;26.73;4.23;;;6.90;97.20;;;;;;5050762;28;20428;-94
2023/01/30 04:06:25;;;;;;;21.23;3.80;;;6.50;97.30;;;;;;5069461;28;20514;-92
2023/01/30 04:08:54;;;;;;;23.38;4.70;;;6.70;97.50;;;;;;5067185;28;20771;-93
2023/01/30 04:11:20;;;;;;;25.33;4.60;;;7.00;97.90;;;;;;5052609;28;20416;-94
2023/01/30 04:13:46;;;;;;;25.45;5.18;;;6.70;98.00;;;;;;5067611;28;20396;-94
2023/01/30 04:16:20;;;;;;;27.48;5.13;;;6.70;98.00;;;;;;5051687;28;20422;-92
2023/01/30 04:18:46;;;;;;;26.55;4.90;;;6.70;98.10;;;;;;5052781;28;20920;-92
2023/01/30 04:21:13;;;;;;;20.10;3.70;;;6.60;97.60;;;;;;5066939;28;20419;-92
2023/01/30 04:23:38;;;;;;;22.52;4.03;;;6.60;97.10;;;;;;5068835;28;20440;-92
2023/01/30 04:26:05;;;;;;;21.90;3.67;;;6.80;96.40;;;;;;5050590;28;20427;-92
2023/01/30 04:28:31;;;;;;;20.85;4.00;;;6.60;95.20;;;;;;5068991;28;20403;-93
2023/01/30 04:30:57;;;;;;;19.70;2.85;;;6.60;94.40;;;;;;5049999;28;20412;-91
2023/01/30 04:33:22;;;;;;;19.33;2.80;;;6.60;93.90;;;;;;5068557;28;20430;-93
2023/01/30 04:35:56;;;;;;;19.92;3.00;;;6.50;93.80;;;;;;5051362;28;20433;-92
2023/01/30 04:38:23;;;;;;;25.10;3.30;;;6.50;93.70;;;;;;5066796;28;20408;-94
2023/01/30 04:40:50;;;;;;;22.65;3.25;;;6.40;94.10;;;;;;5068906;28;20490;-93
2023/01/30 04:43:17;;;;;;;22.88;3.50;;;6.30;94.10;;;;;;5049730;28;20416;-92
2023/01/30 04:45:46;;;;;;;23.33;3.30;;;6.30;94.50;;;;;;5068623;28;20408;-93
2023/01/30 04:48:13;;;;;;;23.33;3.83;;;6.10;94.70;;;;;;5050082;28;20408;-93
2023/01/30 04:50:40;;;;;;;24.25;3.58;;;6.10;94.90;;;;;;5051252;28;20414;-93
2023/01/30 04:53:09;;;;;;;22.90;3.90;;;6.30;95.20;;;;;;5068118;28;20433;-92
2023/01/30 04:55:35;;;;;;;22.13;3.75;;;6.30;95.20;;;;;;5050162;28;20404;-92
2023/01/30 04:58:01;;;;;;;23.33;4.22;;;6.00;95.20;;;;;;5051793;28;20771;-92
2023/01/30 05:00:27;;;;;;;22.75;3.63;;;6.40;95.20;;;;;;5065934;28;20433;-94
2023/01/30 05:02:54;;;;;;;26.52;3.45;;;6.10;94.90;;;;;;5051691;28;20443;-93
2023/01/30 05:05:21;;;;;;;19.65;3.17;;;6.00;94.90;;;;;;5048950;28;20431;-93
2023/01/30 05:07:47;;;;;;;25.23;3.47;;;6.00;95.10;;;;;;5051537;28;20399;-93
2023/01/30 05:10:12;;;;;;;21.53;3.47;;;6.00;95.00;;;;;;5050377;28;20408;-92
2023/01/30 05:12:38;;;;;;;23.73;2.97;;;6.00;94.90;;;;;;5050268;28;20903;-93
2023/01/30 05:15:05;;;;;;;20.70;3.00;;;6.00;94.90;;;;;;5051166;28;20416;-91
2023/01/30 05:17:31;;;;;;;22.23;3.30;;;6.00;94.90;;;;;;5049407;28;20412;-92
2023/01/30 05:19:57;;;;;;;21.00;3.58;;;6.00;95.00;;;;;;5051194;28;20498;-93
2023/01/30 05:22:23;;;;;;;23.10;3.22;;;6.00;94.90;;;;;;5048901;28;20937;-91
2023/01/30 05:24:48;;;;;;;21.63;3.35;;;6.20;95.20;;;;;;5051427;28;20831;-94
2023/01/30 05:27:14;;;;;;;19.87;3.40;;;6.00;95.10;;;;;;5049610;28;20396;-94
2023/01/30 05:29:40;;;;;;;26.90;3.43;;;6.00;95.20;;;;;;5067751;28;20431;-93
2023/01/30 05:32:05;;;;;;;28.25;4.45;;;5.90;95.30;;;;;;5050224;28;20422;-92
2023/01/30 05:34:31;;;;;;;22.10;3.58;;;6.00;95.30;;;;;;5049465;28;20891;-92
2023/01/30 05:36:56;;;;;;;23.20;3.40;;;5.90;95.20;;;;;;5068193;28;20437;-92
2023/01/30 05:39:22;;;;;;;28.07;4.03;;;6.00;95.30;;;;;;5065840;28;20418;-92
2023/01/30 05:41:48;;;;;;;26.75;4.05;;;5.90;95.20;;;;;;5050882;28;20412;-90
2023/01/30 05:44:13;;;;;;;24.27;3.70;;;5.90;95.10;;;;;;5048360;28;20522;-92
2023/01/30 05:46:39;;;;;;;25.00;4.07;;;6.00;95.10;;;;;;5051549;28;20478;-92
2023/01/30 05:49:06;;;;;;;24.70;3.80;;;6.20;95.20;;;;;;5066343;28;20929;-92
2023/01/30 05:51:32;;;;;;;26.83;4.10;;;6.10;94.90;;;;;;5066939;28;20434;-93
2023/01/30 05:53:58;;;;;;;24.60;3.58;;;6.10;95.00;;;;;;5050868;28;20481;-92
2023/01/30 05:56:24;;;;;;;22.67;3.80;;;6.20;94.80;;;;;;5065985;28;20407;-93
2023/01/30 05:58:52;;;;;;;23.83;4.35;;;6.10;94.80;;;;;;5050468;28;20418;-90
2023/01/30 06:01:18;;;;;;;22.45;3.67;;;6.30;94.70;;;;;;5065616;28;20410;-92
2023/01/30 06:03:43;;;;;;;22.75;3.75;;;6.20;94.50;;;;;;5067419;28;20427;-88
2023/01/30 06:06:10;;;;;;;24.30;4.05;;;6.30;94.60;;;;;;5065506;28;20448;-92
2023/01/30 06:08:35;;;;;;;24.90;4.40;;;6.70;94.70;;;;;;5050318;28;20767;-90
2023/01/30 06:11:04;;;;;;;27.97;3.87;;;6.60;94.40;;;;;;5050313;28;20418;-92
2023/01/30 06:13:29;;;;;;;27.00;3.70;;;6.40;94.40;;;;;;5049124;28;20403;-92
2023/01/30 06:15:55;;;;;;;30.60;4.40;;;6.30;94.30;;;;;;5050742;28;20781;-92
2023/01/30 06:18:21;;;;;;;25.13;4.47;;;6.40;94.50;;;;;;5052584;28;20407;-90
2023/01/30 06:20:48;;;;;;;23.03;3.43;;;6.30;94.20;;;;;;5054748;28;20461;-91
2023/01/30 06:23:15;;;;;;;25.00;3.97;;;6.30;94.20;;;;;;5069281;28;20454;-92
2023/01/30 06:25:48;;;;;;;26.90;3.95;;;6.40;94.00;;;;;;5054565;28;20463;-92
2023/01/30 06:28:15;;;;;;;29.80;3.88;;;6.60;94.20;;;;;;5068963;28;20438;-92
2023/01/30 06:30:41;;;;;;;23.20;4.30;;;6.60;94.20;;;;;;5120556;27;20461;-91
2023/01/30 06:33:07;;;;;;;28.20;4.03;;;6.50;94.00;;;;;;5055669;28;20412;-91
2023/01/30 06:35:33;;;;;;;23.52;3.38;;;6.40;93.70;;;;;;5051874;28;20491;-90
2023/01/30 06:37:59;;;;;;;23.35;3.95;;;6.50;93.80;;;;;;5075476;28;20972;-91
2023/01/30 06:40:25;;;;;;;26.15;3.72;;;6.50;93.60;;;;;;5052472;28;20481;-91
2023/01/30 06:42:50;;;;;;;26.48;4.45;;;6.80;93.80;;;;;;5073447;28;20409;-94
2023/01/30 06:45:18;;;;;;;25.30;4.63;;;6.70;93.70;;;;;;5089223;28;20794;-95
2023/01/30 06:47:51;;;;;;;28.80;4.50;;;6.60;93.70;;;;;;5073800;28;20714;-94
2023/01/30 06:50:19;;;;;;;29.00;4.22;;;6.60;93.40;;;;;;5090895;28;20406;-92
2023/01/30 06:52:47;;;;;;;27.88;4.03;;;6.70;93.70;;;;;;5072567;28;20413;-90
2023/01/30 06:55:15;;;;;;;27.77;4.80;;;6.60;93.80;;;;;;5074050;28;20920;-92
2023/01/30 06:57:42;;;;;;;22.40;3.30;;;6.50;93.60;;;;;;5072220;28;20441;-90
2023/01/30 07:00:11;;;;;;;24.30;4.30;;;6.70;93.50;;;;;;5062616;28;20430;-94
2023/01/30 07:02:37;;;;;;;25.00;4.80;;;6.50;93.80;;;;;;5085408;28;20404;-92
2023/01/30 07:05:05;;;;;;;28.27;3.78;;;6.60;93.40;;;;;;5086641;28;20590;-92
2023/01/30 07:07:31;;;;;;;24.92;3.70;;;6.50;93.50;;;;;;5104151;28;20435;-93
2023/01/30 07:09:57;;;;;;;27.23;4.28;;;6.50;93.30;;;;;;5084526;28;20415;-91
2023/01/30 07:12:24;;;;;;;26.67;4.97;;;6.50;93.10;;;;;;5070243;28;20414;-92
2023/01/30 07:14:51;;;;;;;26.52;4.00;;;6.70;93.30;;;;;;5052497;28;20482;-92
2023/01/30 07:17:16;;;;;;;26.98;4.35;;;6.60;93.30;;;;;;5070444;28;20453;-94
2023/01/30 07:19:43;;;;;;;26.02;4.15;;;6.60;93.30;;;;;;5051590;28;20801;-94
2023/01/30 07:22:09;;;;;;;25.33;3.72;;;6.60;93.20;;;;;;5053076;28;20987;-90
2023/01/30 07:24:34;;;;;;;26.73;4.15;;;6.60;93.50;;;;;;5069508;28;20512;-89
2023/01/30 07:27:00;;;;;;;26.80;4.90;;;6.70;93.30;;;;;;5068804;28;20415;-89
2023/01/30 07:29:26;;;;;;;30.67;3.85;;;6.60;93.60;;;;;;5068893;28;20427;-93
2023/01/30 07:31:51;;;;;;;27.83;4.43;;;6.50;93.40;;;;;;5051095;28;20437;-94
2023/01/30 07:34:17;;;;;;;26.63;4.10;;;6.60;93.60;;;;;;5053468;28;20411;-92
2023/01/30 07:36:43;;;;;;;29.23;4.85;;;6.50;93.70;;;;;;5051192;28;20414;-92
2023/01/30 07:39:08;;;;;;;25.48;3.53;;;6.60;93.60;;;;;;5053283;28;20411;-93
2023/01/30 07:41:35;;;;;;;25.90;4.43;;;6.70;93.60;;;;;;5051246;28;20922;-91
2023/01/30 07:44:01;;;;;;;24.98;3.85;;;6.60;93.00;;;;;;5052206;28;20795;-93
2023/01/30 07:46:33;;;;;;;26.75;4.60;;;6.70;93.00;;;;;;5069505;28;20419;-93
2023/01/30 07:49:03;;;;;;;21.83;3.20;;;6.80;93.10;;;;;;5051031;28;20400;-91
2023/01/30 07:51:29;;;;;;;23.77;3.73;;;6.80;92.60;;;;;;5052934;28;20419;-92
2023/01/30 07:53:55;;;;;;;22.10;3.60;;;6.80;92.70;;;;;;5050437;28;20407;-91
2023/01/30 07:56:20;;;;;;;25.88;4.97;;;6.90;92.70;;;;;;5052841;28;20404;-91
2023/01/30 07:58:46;;;;;;;27.42;3.83;;;6.90;92.60;;;;;;5051003;28;20450;-93
2023/01/30 08:01:12;;;;;;;23.60;3.83;;;6.80;92.40;;;;;;5052571;28;20414;-93
2023/01/30 08:03:38;;;;;;;27.00;4.55;;;6.80;92.70;;;;;;5068823;28;20415;-94
2023/01/30 08:06:04;;;;;;;29.98;4.75;;;6.80;93.00;;;;;;5051180;28;20432;-94
2023/01/30 08:08:32;;;;;;;25.98;3.95;;;6.70;93.00;;;;;;5069667;28;20410;-89
2023/01/30 08:10:58;;;;;;;30.07;5.00;;;6.70;93.30;;;;;;5050556;28;20876;-90
2023/01/30 08:13:23;;;;;;;26.70;3.83;;;6.70;93.40;;;;;;5052964;28;20426;-91
2023/01/30 08:15:49;;;;;;;25.65;4.47;;;6.70;93.60;;;;;;5050090;28;20408;-90
2023/01/30 08:18:15;;;;;;;26.60;3.90;;;7.10;93.50;;;;;;5069319;28;20440;-93
2023/01/30 08:20:41;;;;;;;25.23;4.50;;;6.80;93.50;;;;;;5051020;28;20423;-92
2023/01/30 08:23:07;;;;;;;28.38;4.18;;;6.80;93.30;;;;;;5051304;28;20533;-91
2023/01/30 08:25:34;;;;;;;30.02;4.70;;;7.10;93.40;;;;;;5052191;28;20496;-92
2023/01/30 08:28:00;;;;;;;29.35;4.80;;;6.80;93.30;;;;;;5050306;28;20455;-91
2023/01/30 08:30:27;;;;;;;23.00;3.83;;;6.70;93.00;;;;;;5052238;28;20400;-91
2023/01/30 08:32:53;;;;;;;23.70;4.30;;;6.90;93.00;;;;;;5050367;28;20407;-92
2023/01/30 08:35:18;;;;;;;28.13;4.93;;;6.80;93.00;;;;;;5068603;28;20463;-90
2023/01/30 08:37:44;;;;;;;29.03;4.83;;;7.00;93.10;;;;;;5066976;28;20496;-91
2023/01/30 08:40:10;;;;;;;25.60;4.37;;;6.90;93.40;;;;;;5051701;28;20564;-88
2023/01/30 08:42:36;;;;;;;25.30;4.28;;;6.90;93.30;;;;;;5067543;28;20431;-90
2023/01/30 08:45:02;;;;;;;26.87;4.23;;;6.80;93.10;;;;;;5050252;28;20432;-91
2023/01/30 08:47:28;;;;;;;26.87;4.73;;;6.90;93.30;;;;;;5068239;28;20442;-91
2023/01/30 08:49:54;;;;;;;25.23;4.30;;;7.00;93.20;;;;;;5066088;28;20408;-91
2023/01/30 08:52:19;;;;;;;24.63;4.28;;;7.30;93.00;;;;;;5068503;28;20403;-92
2023/01/30 08:54:45;;;;;;;27.27;4.88;;;7.30;92.80;;;;;;5066132;28;20437;-89
2023/01/30 08:57:13;;;;;;;23.00;3.90;;;7.20;92.60;;;;;;5068143;28;20414;-89
2023/01/30 08:59:39;;;;;;;24.25;4.20;;;7.30;92.90;;;;;;5067139;28;20415;-92
2023/01/30 09:02:07;;;;;;;28.42;4.75;;;7.30;92.70;;;;;;5050723;28;20412;-91
2023/01/30 09:04:33;;;;;;;28.45;3.90;;;7.10;92.70;;;;;;5051305;28;20436;-89
2023/01/30 09:06:58;;;;;;;27.50;4.40;;;7.10;92.60;;;;;;5049504;28;20430;-89
2023/01/30 09:09:24;;;;;;;25.95;4.57;;;7.30;92.70;;;;;;5068476;28;20404;-91
2023/01/30 09:11:50;;;;;;;30.47;4.13;;;7.30;92.60;;;;;;5049253;28;20902;-93
2023/01/30 09:14:18;;;;;;;25.33;4.37;;;7.40;92.80;;;;;;5051369;28;20419;-91
2023/01/30 09:16:45;;;;;;;26.23;4.53;;;7.30;92.30;;;;;;5049654;28;20457;-90
2023/01/30 09:19:11;;;;;;;24.77;4.88;;;7.30;92.20;;;;;;5067953;28;20415;-91
2023/01/30 09:21:37;;;;;;;31.38;5.72;;;7.30;92.10;;;;;;5066840;28;20540;-92
2023/01/30 09:24:04;;;;;;;25.33;4.35;;;7.40;92.30;;;;;;5049814;28;20427;-93
2023/01/30 09:26:29;;;;;;;27.30;4.35;;;7.40;92.20;;;;;;5067621;28;20410;-92
2023/01/30 09:28:55;;;;;;;27.03;3.80;;;7.40;92.40;;;;;;5065165;28;20482;-88
2023/01/30 09:31:21;;;;;;;28.10;4.90;;;7.40;92.20;;;;;;5050896;28;20453;-91
2023/01/30 09:33:46;;;;;;;33.15;5.20;;;7.20;92.80;;;;;;5065486;28;20874;-90
2023/01/30 09:36:12;;;;;;;32.83;5.70;;;7.20;93.50;;;;;;5050886;28;20837;-92
2023/01/30 09:38:37;;;;;;;28.27;4.73;;;6.90;94.20;;;;;;5049867;28;20399;-92
2023/01/30 09:41:25;;;;;;;29.33;4.38;;;7.00;94.40;;;;;;5066668;28;20415;-91
2023/01/30 09:44:01;;;;;;;27.25;5.10;;;6.80;94.50;;;;;;5067744;28;20946;-92
2023/01/30 09:47:07;;;;;;;27.88;4.80;;;6.80;93.90;;;;;;5049240;28;20520;-89
2023/01/30 09:49:51;;;;;;;27.80;4.97;;;6.90;93.50;;;;;;5067051;28;20438;-90
2023/01/30 09:52:45;;;;;;;26.10;4.47;;;7.00;93.20;;;;;;5067160;28;20510;-90
2023/01/30 09:55:24;;;;;;;24.55;4.20;;;7.10;92.40;;;;;;5048612;28;20495;-92
2023/01/30 09:57:51;;;;;;;20.60;3.63;;;7.10;92.20;;;;;;5050937;28;20933;-90
2023/01/30 10:00:38;;;;;;;25.85;4.25;;;7.30;91.90;;;;;;5066517;28;20782;-90
2023/01/30 10:03:12;;;;;;;27.65;4.00;;;7.40;91.20;;;;;;5048870;28;20417;-89
2023/01/30 10:05:49;;;;;;;23.75;4.45;;;7.90;91.50;;;;;;5066990;28;21082;-91
2023/01/30 10:08:45;;;;;;;25.65;4.40;;;7.70;90.50;;;;;;5048325;28;20955;-91
2023/01/30 10:11:22;;;;;;;26.67;5.00;;;7.80;90.70;;;;;;5066966;28;20925;-91
2023/01/30 10:14:14;;;;;;;27.55;5.10;;;7.90;90.40;;;;;;5069818;28;20408;-91
2023/01/30 10:17:19;;;;;;;24.13;4.75;;;8.10;90.60;;;;;;5078950;28;20444;-92
2023/01/30 10:20:00;;;;;;;26.58;4.43;;;8.10;90.00;;;;;;5046404;28;20788;-90
2023/01/30 10:23:01;;;;;;;28.35;4.32;;;8.00;90.10;;;;;;5070074;28;20448;-92
2023/01/30 10:25:51;;;;;;;10.63;1.50;;;7.10;93.50;;;;;;5067428;28;20461;-92
2023/01/30 10:28:31;;;;;;;17.35;1.85;;;6.40;94.60;;;;;;5070190;28;20497;-91
2023/01/30 10:31:25;;;;;;;11.40;1.23;;;5.80;96.00;;;;;;5070482;28;20988;-92
2023/01/30 10:33:59;;;;;;;11.25;0.98;;;5.50;96.80;;;;;;5067005;28;20501;-94
2023/01/30 10:36:40;;;;;;;11.60;0.90;;;5.20;97.00;;;;;;5071098;28;20413;-95
2023/01/30 10:39:32;;;;;;;14.57;1.35;;;5.00;97.50;;;;;;5068313;28;20420;-92
2023/01/30 10:42:07;;;;;;;14.30;1.80;;;4.80;98.00;;;;;;5048748;28;20406;-89
2023/01/30 10:44:33;;;;;;;16.90;2.13;;;5.20;98.60;;;;;;5070216;28;20526;-94
2023/01/30 10:47:29;;;;;;;22.00;3.40;;;5.50;98.90;;;;;;5068181;28;20398;-94
2023/01/30 10:50:00;;;;;;;20.60;2.78;;;5.80;98.60;;;;;;5070113;28;20413;-88
2023/01/30 10:52:51;;;;;;;19.50;2.72;;;6.00;98.40;;;;;;5069619;28;20417;-90
2023/01/30 10:55:40;;;;;;;15.60;2.83;;;6.50;97.20;;;;;;5085422;28;20416;-91
2023/01/30 10:58:27;;;;;;;15.65;2.03;;;6.70;95.30;;;;;;5087206;28;20406;-90
2023/01/30 11:01:00;;;;;;;15.40;2.17;;;6.90;95.00;;;;;;5069368;28;20422;-91
2023/01/30 11:03:38;;;;;;;11.50;1.20;;;7.20;94.30;;;;;;5086895;28;20465;-91
2023/01/30 11:06:06;;;;;;;8.65;1.20;;;7.50;93.40;;;;;;5074306;28;20489;-93
2023/01/30 11:08:34;;;;;;;11.77;1.02;;;7.40;92.60;;;;;;5072014;28;20452;-92
2023/01/30 11:11:00;;;;;;;12.07;1.20;;;7.60;92.20;;;;;;5073706;28;20406;-92
2023/01/30 11:13:33;;;;;;;11.00;2.10;;;7.70;92.60;;;;;;5071662;28;20398;-92
2023/01/30 11:16:07;;;;;;;12.80;2.37;;;8.00;92.40;;;;;;5057069;28;20408;-91
2023/01/30 11:18:44;;;;;;;13.27;2.00;;;8.20;91.80;;;;;;5052959;28;20446;-89
2023/01/30 11:21:19;;;;;;;13.05;2.13;;;7.80;91.70;;;;;;5051565;28;20403;-89
2023/01/30 11:23:45;;;;;;;15.20;2.10;;;7.50;92.60;;;;;;5070645;28;20410;-92
2023/01/30 11:26:21;;;;;;;11.30;1.67;;;7.10;92.90;;;;;;5068082;28;20833;-92
2023/01/30 11:28:47;;;;;;;8.70;0.80;;;6.90;92.70;;;;;;5053136;28;20407;-93
2023/01/30 11:31:25;;;;;;;9.90;1.05;;;6.70;92.10;;;;;;5066945;28;20394;-89
2023/01/30 11:34:10;;;;;;;11.63;1.00;;;6.50;91.70;;;;;;5072118;28;20443;-92
2023/01/30 11:36:35;;;;;;;11.27;1.50;;;6.30;92.40;;;;;;5069085;28;20450;-90
2023/01/30 11:39:18;;;;;;;10.43;1.08;;;6.30;92.50;;;;;;5087754;28;20434;-90
2023/01/30 11:41:54;;;;;;;14.32;1.60;;;6.30;93.00;;;;;;5090145;28;20474;-93
2023/01/30 11:44:27;;;;;;;10.33;1.87;;;6.60;93.60;;;;;;5072376;28;20508;-92
2023/01/30 11:46:53;;;;;;;11.25;1.33;;;6.80;93.30;;;;;;5071488;28;20453;-90
2023/01/30 11:49:21;;;;;;;12.57;1.40;;;7.00;92.80;;;;;;5090054;28;20426;-89
2023/01/30 11:51:51;;;;;;;12.13;1.65;;;7.20;93.00;;;;;;5087725;28;20847;-94
2023/01/30 11:54:21;;;;;;;16.00;1.93;;;7.30;92.60;;;;;;5089814;28;20779;-90
2023/01/30 11:56:54;;;;;;;17.02;2.45;;;7.70;92.20;;;;;;5070734;28;20448;-92
2023/01/30 11:59:39;;;;;;;15.13;2.13;;;7.90;91.60;;;;;;5089805;28;20414;-92
2023/01/30 12:02:19;;;;;;;15.60;2.00;;;8.00;91.70;;;;;;5072697;28;20433;-90
2023/01/30 12:04:47;;;;;;;14.82;2.05;;;7.90;91.20;;;;;;5070401;28;20888;-90
2023/01/30 12:07:23;;;;;;;14.82;1.95;;;7.80;91.50;;;;;;5072888;28;20444;-92
2023/01/30 12:09:50;;;;;;;13.93;1.75;;;7.90;91.50;;;;;;5062383;28;20427;-93
2023/01/30 12:12:33;;;;;;;17.30;2.45;;;7.90;91.30;;;;;;5051944;28;20403;-91
2023/01/30 12:15:19;;;;;;;15.50;2.20;;;8.10;91.70;;;;;;5051908;28;20447;-89
2023/01/30 12:18:03;;;;;;;15.40;2.38;;;8.10;91.40;;;;;;5039912;28;20465;-90
2023/01/30 12:20:38;;;;;;;15.77;2.38;;;8.40;91.00;;;;;;5052314;28;20906;-91
2023/01/30 12:23:06;;;;;;;14.60;2.20;;;8.90;90.50;;;;;;5067710;28;20581;-91
2023/01/30 12:25:55;;;;;;;15.00;2.17;;;9.40;90.00;;;;;;5067981;28;20435;-91
2023/01/30 12:28:52;;;;;;;14.48;2.10;;;9.10;89.00;;;;;;5052031;28;20414;-91
2023/01/30 12:31:21;;;;;;;11.98;1.88;;;9.10;88.70;;;;;;5017384;28;20414;-91
2023/01/30 12:33:48;;;;;;;14.55;2.42;;;8.80;89.20;;;;;;5052075;28;20418;-93
2023/01/30 12:36:44;;;;;;;14.98;2.08;;;8.80;89.60;;;;;;5050824;28;20798;-91
2023/01/30 12:39:41;;;;;;;12.88;2.10;;;8.80;90.00;;;;;;5067048;28;20452;-93
2023/01/30 12:42:17;;;;;;;14.60;2.20;;;8.80;90.00;;;;;;5067858;28;20419;-93
2023/01/30 12:45:13;;;;;;;15.77;2.22;;;9.00;90.00;;;;;;5050365;28;20533;-91
2023/01/30 12:47:50;;;;;;;16.98;2.75;;;8.60;90.00;;;;;;5057671;28;20879;-92
2023/01/30 12:50:47;;;;;;;16.35;2.20;;;8.50;90.40;;;;;;5052779;28;20791;-93
2023/01/30 12:53:13;;;;;;;20.70;3.15;;;8.50;90.30;;;;;;5066482;28;20419;-92
2023/01/30 12:55:43;;;;;;;22.63;3.37;;;8.50;90.70;;;;;;5051302;28;20550;-91
2023/01/30 12:58:28;;;;;;;22.42;3.55;;;8.40;91.00;;;;;;5050551;28;20407;-91
2023/01/30 13:00:59;;;;;;;23.52;3.35;;;8.40;91.00;;;;;;5048752;28;20894;-92
2023/01/30 13:03:25;;;;;;;22.45;4.25;;;8.70;91.00;;;;;;5051261;28;20423;-93
2023/01/30 13:06:29;;;;;;;22.50;3.72;;;8.30;91.00;;;;;;5048576;28;20821;-92
2023/01/30 13:09:14;;;;;;;21.92;4.15;;;8.30;91.00;;;;;;5034642;28;20478;-93
2023/01/30 13:11:57;;;;;;;26.25;4.63;;;8.40;91.10;;;;;;5051125;28;20416;-91
2023/01/30 13:14:35;;;;;;;26.77;4.65;;;8.40;91.00;;;;;;5049897;28;20415;-91